Time;durP1;ratioP1;P1;durP2;ratioP2;P2;SDS_P1;SDS_P2;PMS_P1;PMS_P2;Temp;Humidity;BMP_temperature;BMP_pressure;BME280_temperature;BME280_humidity;BME280_pressure;Samples;Min_cycle;Max_cycle;Signal;HPM_P1;HPM_P2
2023/10/01 00:00:21;;;;;;;11.25;5.13;;;;;;;15.88;65.34;100933.06;6204492;23;20482;-89
2023/10/01 00:02:49;;;;;;;8.48;4.32;;;;;;;15.85;65.18;100928.84;6180588;23;20429;-88
2023/10/01 00:05:15;;;;;;;9.65;4.93;;;;;;;15.80;65.50;100937.31;6156440;23;20051;-89
2023/10/01 00:07:43;;;;;;;10.05;4.55;;;;;;;15.79;65.44;100943.63;6155875;23;20015;-87
2023/10/01 00:10:13;;;;;;;9.88;5.28;;;;;;;15.80;65.46;100950.69;6180104;23;20048;-87
2023/10/01 00:12:44;;;;;;;12.07;5.07;;;;;;;15.80;65.43;100949.84;6180054;23;20025;-87
2023/10/01 00:15:14;;;;;;;8.57;4.65;;;;;;;15.74;65.55;100947.72;6154098;23;20024;-88
2023/10/01 00:17:44;;;;;;;11.02;4.88;;;;;;;15.71;65.29;100946.16;6204641;23;20024;-88
2023/10/01 00:20:18;;;;;;;9.90;4.53;;;;;;;15.73;65.61;100949.56;6130427;23;20055;-88
2023/10/01 00:22:45;;;;;;;10.02;4.57;;;;;;;15.68;65.24;100954.47;6156679;23;20120;-88
2023/10/01 00:25:13;;;;;;;7.35;4.32;;;;;;;15.68;65.40;100946.44;6203252;23;20476;-87
2023/10/01 00:27:40;;;;;;;8.15;4.53;;;;;;;15.68;65.09;100951.78;6155907;23;20020;-89
2023/10/01 00:30:10;;;;;;;8.18;4.93;;;;;;;15.67;65.08;100943.88;6179450;23;20056;-89
2023/10/01 00:32:38;;;;;;;6.78;4.30;;;;;;;15.67;65.05;100947.41;6132332;23;20023;-87
2023/10/01 00:35:06;;;;;;;9.48;4.65;;;;;;;15.64;65.02;100937.81;6204109;23;20906;-87
2023/10/01 00:37:34;;;;;;;8.35;4.43;;;;;;;15.57;65.04;100938.53;6179585;23;20382;-88
2023/10/01 00:40:05;;;;;;;11.13;4.22;;;;;;;15.55;65.10;100937.84;6155865;23;20016;-87
2023/10/01 00:42:34;;;;;;;7.40;4.13;;;;;;;15.54;65.13;100942.31;6156850;23;20381;-88
2023/10/01 00:45:14;;;;;;;10.15;4.50;;;;;;;15.36;65.19;100944.84;6154258;23;20032;-87
2023/10/01 00:47:46;;;;;;;7.82;4.28;;;;;;;15.42;64.92;100946.16;6132677;23;20027;-87
2023/10/01 00:50:21;;;;;;;10.63;4.93;;;;;;;15.38;65.01;100952.75;6155658;23;20147;-88
2023/10/01 00:52:51;;;;;;;9.15;4.50;;;;;;;15.46;64.89;100950.22;6179028;23;20020;-88
2023/10/01 00:55:20;;;;;;;11.90;4.80;;;;;;;15.43;64.93;100942.47;6156334;23;20029;-88
2023/10/01 00:57:49;;;;;;;11.60;4.85;;;;;;;15.39;65.08;100944.59;6155485;23;20075;-87
2023/10/01 01:00:19;;;;;;;7.00;3.88;;;;;;;15.38;65.07;100939.38;6204548;23;20075;-88
2023/10/01 01:03:06;;;;;;;9.15;4.88;;;;;;;15.31;65.03;100941.75;6180281;23;20043;-88
2023/10/01 01:05:37;;;;;;;8.40;4.30;;;;;;;15.31;64.74;100936.41;6159206;23;20026;-88
2023/10/01 01:08:09;;;;;;;7.93;4.40;;;;;;;15.32;65.10;100939.94;6155311;23;20406;-87
2023/10/01 01:10:40;;;;;;;8.07;4.72;;;;;;;15.28;64.96;100949.22;6155435;23;20096;-88
2023/10/01 01:13:08;;;;;;;8.70;4.57;;;;;;;15.28;65.25;100943.88;6179222;23;20475;-88
2023/10/01 01:15:35;;;;;;;9.60;4.13;;;;;;;15.25;64.88;100938.81;6155504;23;20026;-87
2023/10/01 01:18:07;;;;;;;8.82;5.57;;;;;;;15.18;65.29;100943.84;6154300;23;20020;-87
2023/10/01 01:20:43;;;;;;;10.60;4.47;;;;;;;15.15;65.26;100944.13;6180503;23;20020;-87
2023/10/01 01:23:18;;;;;;;9.23;4.95;;;;;;;15.15;64.58;100941.47;6155019;23;20785;-88
2023/10/01 01:25:46;;;;;;;7.18;4.32;;;;;;;15.14;65.08;100940.63;6205570;23;20025;-88
2023/10/01 01:28:12;;;;;;;8.73;4.47;;;;;;;15.13;65.25;100941.59;6203962;23;20499;-87
2023/10/01 01:30:43;;;;;;;7.68;4.70;;;;;;;15.13;64.99;100935.41;6205141;23;20071;-88
2023/10/01 01:33:13;;;;;;;9.45;4.28;;;;;;;15.07;64.92;100923.44;6178379;23;20024;-87
2023/10/01 01:35:43;;;;;;;13.88;4.93;;;;;;;15.09;64.99;100932.16;6180424;23;20020;-88
2023/10/01 01:38:10;;;;;;;8.55;4.22;;;;;;;15.06;65.08;100923.56;6204024;23;20021;-87
2023/10/01 01:40:40;;;;;;;7.93;3.85;;;;;;;15.04;64.95;100923.72;6179187;23;20075;-88
2023/10/01 01:43:21;;;;;;;8.23;3.92;;;;;;;15.03;64.85;100923.84;6156352;23;20103;-87
2023/10/01 01:45:54;;;;;;;8.45;4.30;;;;;;;14.97;64.87;100923.41;6181888;23;20440;-88
2023/10/01 01:48:30;;;;;;;11.30;5.00;;;;;;;14.96;65.11;100924.41;6180201;23;20031;-87
2023/10/01 01:50:58;;;;;;;8.55;4.53;;;;;;;14.93;64.96;100923.81;6155119;23;20016;-88
2023/10/01 01:53:34;;;;;;;11.02;4.22;;;;;;;14.94;64.99;100922.84;6156129;23;20016;-87
2023/10/01 01:56:13;;;;;;;9.80;3.97;;;;;;;14.87;65.11;100929.72;6133017;23;20023;-87
2023/10/01 01:58:40;;;;;;;9.75;4.57;;;;;;;14.88;65.12;100915.34;6182221;23;20353;-88
2023/10/01 02:01:08;;;;;;;11.82;4.80;;;;;;;14.91;65.05;100912.44;6156381;23;20455;-87
2023/10/01 02:03:40;;;;;;;9.52;4.35;;;;;;;14.91;64.90;100923.97;6132539;23;20090;-87
2023/10/01 02:06:07;;;;;;;8.00;4.30;;;;;;;14.92;64.94;100922.97;6157077;23;20132;-87
2023/10/01 02:08:56;;;;;;;7.40;4.03;;;;;;;14.87;65.13;100914.50;6156890;23;20039;-87
2023/10/01 02:11:25;;;;;;;6.95;4.10;;;;;;;14.78;65.25;100915.31;6186328;23;20024;-87
2023/10/01 02:13:54;;;;;;;9.73;4.90;;;;;;;14.82;65.30;100916.75;6182052;23;20348;-88
2023/10/01 02:18:56;;;;;;;8.90;4.20;;;;;;;14.85;65.21;100912.97;6205791;23;20047;-88
2023/10/01 02:24:23;;;;;;;7.88;4.47;;;;;;;14.72;65.33;100919.41;6155897;23;20028;-88
2023/10/01 02:27:11;;;;;;;10.13;4.18;;;;;;;14.71;65.26;100915.03;6157785;23;20088;-88
2023/10/01 02:32:24;;;;;;;9.77;3.83;;;;;;;14.71;65.18;100908.84;6207184;23;20044;-87
2023/10/01 02:34:51;;;;;;;8.20;4.45;;;;;;;14.69;65.15;100905.47;6181541;23;20382;-87
2023/10/01 02:37:29;;;;;;;9.35;5.13;;;;;;;14.63;65.42;100903.31;6181213;23;20021;-87
2023/10/01 02:39:59;;;;;;;8.45;4.10;;;;;;;14.63;65.53;100906.88;6159144;23;20025;-88
2023/10/01 02:42:28;;;;;;;6.68;4.38;;;;;;;14.60;65.63;100904.44;6157409;23;20021;-87
2023/10/01 02:44:55;;;;;;;8.55;4.40;;;;;;;14.58;65.24;100901.06;6157108;23;20075;-88
2023/10/01 02:47:24;;;;;;;7.50;4.38;;;;;;;14.60;65.33;100903.59;6205044;23;20844;-87
2023/10/01 02:49:53;;;;;;;9.57;4.57;;;;;;;14.59;65.15;100902.75;6182920;23;20398;-88
2023/10/01 02:52:22;;;;;;;9.52;4.18;;;;;;;14.61;65.02;100900.78;6131542;23;20023;-89
2023/10/01 02:55:00;;;;;;;6.88;3.85;;;;;;;14.58;65.32;100902.88;6180710;23;20016;-88
2023/10/01 02:57:27;;;;;;;9.07;4.10;;;;;;;14.54;65.30;100905.00;6134377;23;20016;-88
2023/10/01 03:02:51;;;;;;;9.38;4.40;;;;;;;14.50;65.55;100896.38;6184683;23;20024;-88
2023/10/01 03:05:28;;;;;;;8.13;3.92;;;;;;;14.45;65.64;100892.41;6181183;23;20023;-88
2023/10/01 03:08:40;;;;;;;8.13;4.10;;;;;;;14.44;65.75;100896.91;6183036;23;20075;-88
2023/10/01 03:10:47;;;;;;;7.80;3.95;;;;;;;14.47;65.40;100901.13;6160578;23;20074;-87
2023/10/01 03:13:19;;;;;;;8.52;4.05;;;;;;;14.40;65.50;100890.16;6156099;23;20389;-88
2023/10/01 03:16:39;;;;;;;10.68;3.97;;;;;;;14.39;65.64;100884.94;6182536;23;20025;-87
2023/10/01 03:18:36;;;;;;;12.32;4.50;;;;;;;14.41;65.23;100881.13;6184885;23;20441;-88
2023/10/01 03:21:17;;;;;;;6.05;3.70;;;;;;;14.40;65.63;100878.59;6180667;23;20016;-88
2023/10/01 03:23:53;;;;;;;7.22;4.20;;;;;;;14.41;65.39;100880.31;6161142;23;20036;-87
2023/10/01 03:26:21;;;;;;;6.30;3.88;;;;;;;14.38;65.46;100880.56;6157422;23;20024;-87
2023/10/01 03:31:37;;;;;;;8.68;4.20;;;;;;;14.32;65.29;100892.63;6181318;23;20028;-87
2023/10/01 03:34:05;;;;;;;9.80;3.83;;;;;;;14.31;65.27;100893.63;6156236;23;20040;-87
2023/10/01 03:36:32;;;;;;;7.90;4.38;;;;;;;14.27;65.00;100894.84;6156299;23;20019;-88
2023/10/01 03:39:23;;;;;;;9.52;4.13;;;;;;;14.25;65.07;100884.31;6155360;23;20016;-87
2023/10/01 03:47:19;;;;;;;9.55;4.20;;;;;;;14.17;64.68;100894.81;6180288;23;20093;-87
2023/10/01 03:49:46;;;;;;;6.72;3.88;;;;;;;14.15;65.04;100888.78;6205987;23;20100;-88
2023/10/01 03:52:20;;;;;;;7.28;4.05;;;;;;;14.18;65.12;100882.31;6180389;23;20024;-87
2023/10/01 03:55:00;;;;;;;7.78;3.75;;;;;;;14.14;65.28;100876.38;6158100;23;20020;-89
2023/10/01 03:57:29;;;;;;;9.43;3.97;;;;;;;14.07;65.36;100873.41;6158238;23;20103;-88
2023/10/01 03:59:57;;;;;;;11.75;5.07;;;;;;;14.09;65.41;100868.78;6155054;23;20036;-88
2023/10/01 04:02:42;;;;;;;6.95;3.78;;;;;;;14.08;65.48;100872.41;6180662;23;20028;-88
2023/10/01 04:05:23;;;;;;;5.93;3.75;;;;;;;14.06;65.25;100863.69;6157655;23;20025;-87
2023/10/01 04:07:50;;;;;;;10.35;4.15;;;;;;;14.05;65.48;100862.00;6178606;23;20024;-88
2023/10/01 04:10:38;;;;;;;7.78;4.32;;;;;;;14.03;65.54;100858.63;6205159;23;20022;-88
2023/10/01 04:15:46;;;;;;;7.80;4.20;;;;;;;13.98;65.90;100863.50;6205030;23;20027;-87
2023/10/01 04:23:33;;;;;;;6.22;3.92;;;;;;;13.90;65.71;100876.69;6204294;23;20024;-87
2023/10/01 04:26:06;;;;;;;9.00;4.35;;;;;;;13.92;65.55;100877.41;6155383;23;20023;-88
2023/10/01 04:28:35;;;;;;;7.20;4.03;;;;;;;13.86;65.45;100885.91;6155851;23;20025;-88
2023/10/01 04:31:09;;;;;;;7.75;4.35;;;;;;;13.88;65.53;100890.16;6155077;23;20095;-88
2023/10/01 04:33:42;;;;;;;10.68;4.25;;;;;;;13.84;65.54;100896.75;6204660;23;20522;-88
2023/10/01 04:36:16;;;;;;;7.20;3.97;;;;;;;13.78;65.90;100893.75;6180742;23;20029;-88
2023/10/01 04:38:44;;;;;;;9.93;4.57;;;;;;;13.78;66.17;100905.25;6205931;23;20020;-88
2023/10/01 04:41:18;;;;;;;7.55;4.30;;;;;;;13.77;65.54;100903.59;6154475;23;20131;-87
2023/10/01 04:43:55;;;;;;;6.72;3.88;;;;;;;13.77;65.53;100898.25;6156146;23;20072;-87
2023/10/01 04:46:29;;;;;;;6.18;3.33;;;;;;;13.73;65.32;100894.13;6182123;23;20031;-87
2023/10/01 04:48:57;;;;;;;11.27;4.40;;;;;;;13.77;65.66;100892.91;6181099;23;20791;-87
2023/10/01 04:51:44;;;;;;;7.18;3.72;;;;;;;13.73;65.56;100891.47;6154749;23;20415;-87
2023/10/01 04:54:17;;;;;;;7.70;3.70;;;;;;;13.74;65.95;100892.31;6159433;23;20025;-87
2023/10/01 04:56:48;;;;;;;7.13;3.50;;;;;;;13.66;65.72;100890.28;6181670;23;20390;-87
2023/10/01 04:59:21;;;;;;;7.20;3.95;;;;;;;13.68;65.72;100889.16;6181458;23;20108;-87
2023/10/01 05:01:47;;;;;;;;;;;;;;;13.38;66.35;100903.28;6181677;23;20020;-87
2023/10/01 05:04:15;;;;;;;7.50;4.25;;;;;;;13.60;65.87;100894.31;6179885;23;19924;-87
2023/10/01 05:06:43;;;;;;;7.05;3.83;;;;;;;13.62;66.06;100892.38;6179966;23;20023;-87
2023/10/01 05:09:14;;;;;;;7.93;3.83;;;;;;;13.61;65.87;100896.03;6154184;23;20445;-87
2023/10/01 05:11:43;;;;;;;8.48;3.83;;;;;;;13.63;65.90;100893.22;6155135;23;20021;-87
2023/10/01 05:14:12;;;;;;;8.48;3.80;;;;;;;13.63;66.02;100896.72;6203230;23;20036;-87
2023/10/01 05:16:39;;;;;;;9.43;4.05;;;;;;;13.60;65.90;100899.66;6202444;23;20523;-88
2023/10/01 05:19:09;;;;;;;7.70;3.65;;;;;;;13.55;65.83;100895.69;6177252;23;20013;-87
2023/10/01 05:21:41;;;;;;;6.38;3.55;;;;;;;13.56;66.06;100902.72;6156780;23;20016;-86
2023/10/01 05:24:09;;;;;;;8.65;4.28;;;;;;;13.63;66.01;100901.22;6155388;23;20033;-87
2023/10/01 05:26:38;;;;;;;7.28;3.70;;;;;;;13.64;65.84;100911.78;6179196;23;20025;-87
2023/10/01 05:29:07;;;;;;;5.30;3.45;;;;;;;13.57;66.28;100907.94;6130007;23;20031;-87
2023/10/01 05:31:34;;;;;;;7.00;3.63;;;;;;;13.59;66.20;100910.47;6178431;23;20036;-87
2023/10/01 05:34:01;;;;;;;8.35;4.30;;;;;;;13.58;66.27;100912.28;6181234;23;20341;-87
2023/10/01 05:36:29;;;;;;;8.23;4.15;;;;;;;13.62;66.32;100915.56;6133098;23;20102;-87
2023/10/01 05:38:56;;;;;;;8.85;3.97;;;;;;;13.56;66.27;100924.06;6158178;23;20028;-87
2023/10/01 05:41:32;;;;;;;8.65;3.78;;;;;;;13.57;66.30;100928.44;6183321;23;20028;-87
2023/10/01 05:44:02;;;;;;;6.28;3.90;;;;;;;13.58;66.08;100927.44;6183072;23;20021;-87
2023/10/01 05:46:30;;;;;;;8.38;3.90;;;;;;;13.62;66.15;100931.56;6158526;23;20099;-87
2023/10/01 05:49:00;;;;;;;7.85;4.57;;;;;;;13.54;65.54;100926.88;6158300;23;20448;-87
2023/10/01 05:51:36;;;;;;;8.85;4.38;;;;;;;13.57;65.64;100929.28;6159792;23;20028;-87
2023/10/01 05:54:04;;;;;;;7.57;3.72;;;;;;;13.62;65.68;100935.06;6184317;23;20516;-87
2023/10/01 05:56:36;;;;;;;8.65;3.95;;;;;;;13.59;65.55;100934.50;6207788;23;20020;-87
2023/10/01 05:59:04;;;;;;;6.03;3.75;;;;;;;13.63;65.52;100939.44;6183397;23;20381;-87
2023/10/01 06:01:34;;;;;;;7.38;4.18;;;;;;;13.62;65.66;100945.75;6158402;23;20039;-87
2023/10/01 06:04:01;;;;;;;8.23;3.92;;;;;;;13.64;65.52;100943.81;6158206;23;20024;-87
2023/10/01 06:06:31;;;;;;;5.85;3.60;;;;;;;13.62;65.24;100945.75;6205947;23;20026;-88
2023/10/01 06:08:58;;;;;;;7.55;3.92;;;;;;;13.61;65.22;100949.41;6181481;23;20028;-88
2023/10/01 06:11:42;;;;;;;8.05;3.88;;;;;;;13.62;65.35;100950.25;6230654;23;20602;-88
2023/10/01 06:17:00;;;;;;;6.32;3.42;;;;;;;13.57;65.61;100961.31;6160709;23;20714;-87
2023/10/01 06:19:28;;;;;;;7.65;3.97;;;;;;;13.55;65.92;100952.56;6159533;23;20071;-87
2023/10/01 06:22:12;;;;;;;8.90;4.38;;;;;;;13.57;65.67;100953.28;6181318;23;20028;-88
2023/10/01 06:24:42;;;;;;;7.63;3.88;;;;;;;13.56;65.66;100959.63;6185074;23;20028;-87
2023/10/01 06:27:12;;;;;;;7.50;4.28;;;;;;;13.56;65.89;100956.94;6204885;23;20035;-88
2023/10/01 06:29:52;;;;;;;9.80;4.45;;;;;;;13.55;65.91;100952.56;6207179;23;20016;-87
2023/10/01 06:32:23;;;;;;;9.13;3.90;;;;;;;13.54;65.84;100950.03;6181778;23;20344;-87
2023/10/01 06:34:53;;;;;;;6.70;3.85;;;;;;;13.62;66.02;100964.44;6157548;23;20686;-87
2023/10/01 06:37:20;;;;;;;7.57;3.92;;;;;;;13.61;66.08;100957.41;6182861;23;20091;-87
2023/10/01 06:39:47;;;;;;;11.10;4.22;;;;;;;13.69;66.05;100964.78;6157914;23;20024;-87
2023/10/01 06:42:18;;;;;;;7.10;3.38;;;;;;;13.73;66.09;100965.34;6157183;23;20024;-87
2023/10/01 06:44:52;;;;;;;8.43;4.45;;;;;;;13.76;66.09;100965.94;6156648;23;20040;-87
2023/10/01 06:47:22;;;;;;;;;;;;;;;13.54;67.05;100960.72;6156317;23;20035;-87
2023/10/01 06:52:28;;;;;;;8.73;4.32;;;;;;;13.71;66.08;100967.31;6180577;23;20032;-87
2023/10/01 06:54:56;;;;;;;7.65;4.47;;;;;;;13.74;66.26;100964.38;6156002;23;20024;-88
2023/10/01 06:57:27;;;;;;;6.20;3.80;;;;;;;13.77;66.55;100970.31;6201848;23;20028;-87
2023/10/01 06:59:56;;;;;;;7.50;4.22;;;;;;;13.80;66.53;100964.72;6202573;23;20092;-87
2023/10/01 07:02:28;;;;;;;8.00;4.25;;;;;;;13.91;66.57;100974.47;6157347;23;20023;-88
2023/10/01 07:05:00;;;;;;;8.57;3.75;;;;;;;13.92;66.51;100968.19;6149111;23;20025;-87
2023/10/01 07:07:31;;;;;;;9.75;4.53;;;;;;;13.88;66.67;100972.06;6156710;23;20024;-87
2023/10/01 07:10:00;;;;;;;7.57;4.38;;;;;;;13.97;66.60;100973.13;6156343;23;20084;-88
2023/10/01 07:12:27;;;;;;;9.50;4.22;;;;;;;13.96;66.67;100966.94;6204516;23;20043;-88
2023/10/01 07:14:53;;;;;;;9.02;4.35;;;;;;;13.95;66.72;100970.59;6154841;23;20456;-88
2023/10/01 07:17:25;;;;;;;6.63;3.75;;;;;;;13.99;66.93;100966.69;6204316;23;20016;-88
2023/10/01 07:19:59;;;;;;;12.07;4.85;;;;;;;14.00;66.94;100976.38;6155636;23;20016;-92
2023/10/01 07:22:32;;;;;;;10.05;4.30;;;;;;;14.04;66.93;100972.50;6176892;23;20032;-89
2023/10/01 07:25:00;;;;;;;11.20;4.97;;;;;;;14.03;66.91;100976.13;6155020;23;20460;-89
2023/10/01 07:27:28;;;;;;;11.77;4.65;;;;;;;14.04;67.03;100963.59;6113044;23;20016;-91
2023/10/01 07:29:56;;;;;;;7.75;4.80;;;;;;;14.11;67.31;100965.63;6177479;23;20021;-89
2023/10/01 07:32:25;;;;;;;8.48;4.45;;;;;;;14.19;67.22;100964.97;6113086;23;20028;-90
2023/10/01 07:34:59;;;;;;;6.40;4.30;;;;;;;14.25;67.48;100963.63;6174181;23;20044;-89
2023/10/01 07:37:29;;;;;;;9.45;4.05;;;;;;;14.29;67.48;100973.03;6128365;23;20086;-91
2023/10/01 07:40:08;;;;;;;6.35;4.32;;;;;;;14.34;67.63;100968.16;6145808;23;20017;-92
2023/10/01 07:42:54;;;;;;;8.95;4.13;;;;;;;14.42;67.71;100968.34;6094401;23;20024;-91
2023/10/01 07:45:22;;;;;;;9.13;4.60;;;;;;;14.39;67.74;100976.63;6177740;23;20024;-93
2023/10/01 07:47:52;;;;;;;8.05;3.97;;;;;;;14.38;67.62;100974.94;6117345;23;20016;-91
2023/10/01 07:50:19;;;;;;;8.40;5.22;;;;;;;14.43;67.64;100979.91;6155315;23;20036;-90
2023/10/01 07:53:03;;;;;;;7.95;3.88;;;;;;;14.47;67.82;100974.13;6153590;23;20630;-92
2023/10/01 07:55:34;;;;;;;11.00;5.22;;;;;;;14.51;67.80;100978.22;6157097;23;20107;-91
2023/10/01 08:00:58;;;;;;;10.30;5.28;;;;;;;14.52;67.83;100977.25;6159098;23;20021;-92
2023/10/01 08:06:10;;;;;;;11.50;5.45;;;;;;;14.69;67.99;100981.16;6205372;23;20107;-91
2023/10/01 08:08:37;;;;;;;12.00;5.43;;;;;;;14.73;68.33;100979.94;6157336;23;20020;-93
2023/10/01 08:11:55;;;;;;;9.07;5.20;;;;;;;14.72;68.44;100982.72;6179836;23;20021;-92
2023/10/01 08:13:57;;;;;;;10.75;5.30;;;;;;;14.75;68.33;100979.78;6159027;23;20440;-92
2023/10/01 08:16:24;;;;;;;10.52;5.07;;;;;;;14.79;68.51;100980.38;6182158;23;20028;-94
2023/10/01 08:18:57;;;;;;;9.85;5.47;;;;;;;14.82;68.75;100982.75;6208272;23;20460;-92
2023/10/01 08:21:38;;;;;;;15.57;6.28;;;;;;;14.85;68.73;100977.97;6184060;23;20024;-92
2023/10/01 08:24:10;;;;;;;11.68;6.03;;;;;;;14.89;68.85;100968.72;6135224;23;20027;-91
2023/10/01 08:26:43;;;;;;;13.07;5.68;;;;;;;14.97;68.73;100968.03;6133018;23;20017;-93
2023/10/01 08:29:14;;;;;;;14.50;6.30;;;;;;;15.04;69.22;100971.88;6144880;23;20059;-92
2023/10/01 08:32:07;;;;;;;12.95;5.72;;;;;;;15.05;69.46;100968.19;6132775;23;20012;-92
2023/10/01 08:34:40;;;;;;;14.35;6.88;;;;;;;15.10;69.21;100967.78;6159617;23;20079;-91
2023/10/01 08:37:07;;;;;;;12.98;5.72;;;;;;;15.15;69.58;100960.19;6132499;23;20087;-91
2023/10/01 08:39:34;;;;;;;13.85;6.28;;;;;;;15.14;69.79;100959.34;6155470;23;20103;-90
2023/10/01 08:42:08;;;;;;;10.35;6.05;;;;;;;15.19;69.90;100959.78;6180064;23;20020;-90
2023/10/01 08:44:50;;;;;;;15.07;6.10;;;;;;;15.23;70.13;100959.50;6182175;23;20020;-91
2023/10/01 08:47:26;;;;;;;12.07;6.25;;;;;;;15.27;70.70;100960.94;6155748;23;20043;-91
2023/10/01 08:49:56;;;;;;;11.55;5.43;;;;;;;15.32;70.22;100958.69;6131989;23;20410;-93
2023/10/01 08:52:30;;;;;;;12.60;6.65;;;;;;;15.36;70.33;100965.44;6143863;23;20086;-91
2023/10/01 08:54:57;;;;;;;12.45;5.50;;;;;;;15.39;70.44;100962.47;6132560;23;20024;-93
2023/10/01 08:57:36;;;;;;;11.43;6.05;;;;;;;15.43;70.68;100961.22;6155670;23;20020;-92
2023/10/01 09:00:17;;;;;;;12.85;6.22;;;;;;;15.41;70.71;100958.66;6133766;23;20027;-92
2023/10/01 09:02:55;;;;;;;12.95;6.10;;;;;;;15.45;71.28;100961.09;6180336;23;20027;-95
2023/10/01 09:05:23;;;;;;;10.57;5.72;;;;;;;15.51;70.83;100957.84;6133478;23;20020;-93
2023/10/01 09:10:50;;;;;;;15.80;6.35;;;;;;;15.52;71.72;100955.03;6178528;23;20051;-93
2023/10/01 09:13:21;;;;;;;12.30;5.82;;;;;;;15.58;71.45;100948.25;6176519;23;20021;-92
2023/10/01 09:15:55;;;;;;;10.70;5.47;;;;;;;15.60;71.50;100957.00;6158345;23;20020;-94
2023/10/01 09:18:23;;;;;;;10.73;5.47;;;;;;;15.65;71.55;100946.72;6134238;23;20028;-94
2023/10/01 09:21:09;;;;;;;11.70;5.72;;;;;;;15.69;71.85;100948.13;6157544;23;20074;-94
2023/10/01 09:23:55;;;;;;;13.05;5.75;;;;;;;15.70;72.32;100940.94;6136264;23;23011;-96
2023/10/01 09:26:37;;;;;;;13.10;5.60;;;;;;;15.77;71.90;100939.41;6160709;23;20027;-95
2023/10/01 09:29:13;;;;;;;15.45;5.18;;;;;;;15.79;72.12;100937.44;6157542;23;20750;-95
2023/10/01 09:31:54;;;;;;;11.63;5.57;;;;;;;15.77;72.36;100926.88;6134498;23;20020;-94
2023/10/01 09:34:34;;;;;;;13.07;5.25;;;;;;;15.84;72.48;100927.13;6156751;23;20029;-94
2023/10/01 09:37:12;;;;;;;15.60;7.10;;;;;;;15.87;72.61;100934.88;6135155;23;20490;-95
2023/10/01 09:39:41;;;;;;;14.50;6.32;;;;;;;15.93;72.29;100923.59;6182038;23;20333;-95
2023/10/01 09:42:28;;;;;;;13.85;6.20;;;;;;;15.99;72.36;100923.00;6159914;23;20040;-95
2023/10/01 09:45:09;;;;;;;12.25;5.38;;;;;;;16.03;72.71;100928.94;6137691;23;20024;-95
2023/10/01 09:47:36;;;;;;;10.40;4.82;;;;;;;16.05;72.64;100918.91;6162452;23;20426;-95
2023/10/01 09:50:04;;;;;;;13.85;5.45;;;;;;;16.10;72.85;100929.19;6133570;23;20012;-95
2023/10/01 09:52:48;;;;;;;9.25;4.30;;;;;;;16.16;73.07;100928.63;6133511;23;20259;-92
2023/10/01 09:55:26;;;;;;;11.05;6.45;;;;;;;16.15;73.60;100925.09;6156065;23;20509;-95
2023/10/01 09:57:54;;;;;;;12.60;5.05;;;;;;;16.21;73.49;100929.03;6136076;23;20017;-95
2023/10/01 10:00:21;;;;;;;11.63;5.30;;;;;;;16.24;73.74;100931.44;6206689;23;20035;-95
2023/10/01 10:02:52;;;;;;;14.93;6.18;;;;;;;16.26;74.18;100922.25;6133616;23;20025;-94
2023/10/01 10:05:24;;;;;;;14.90;5.65;;;;;;;16.28;74.06;100920.28;6157943;23;20017;-96
2023/10/01 10:08:13;;;;;;;13.25;5.72;;;;;;;16.30;74.26;100914.75;6157514;23;20021;-92
2023/10/01 10:10:52;;;;;;;11.63;6.15;;;;;;;16.34;74.40;100918.00;6135119;23;20021;-94
2023/10/01 10:16:31;;;;;;;13.73;5.87;;;;;;;16.41;74.85;100909.22;6157838;23;20479;-96
2023/10/01 10:19:20;;;;;;;10.65;5.72;;;;;;;16.47;74.55;100905.94;6134871;23;20035;-94
2023/10/01 10:22:05;;;;;;;13.98;5.25;;;;;;;16.50;75.21;100904.78;6162033;23;20063;-95
2023/10/01 10:24:46;;;;;;;9.80;5.18;;;;;;;16.51;75.32;100898.44;6158658;23;20020;-95
2023/10/01 10:27:19;;;;;;;13.13;5.40;;;;;;;16.54;74.95;100897.28;6136132;23;20035;-94
2023/10/01 10:29:57;;;;;;;12.88;5.18;;;;;;;16.59;75.04;100901.25;6183947;23;20091;-94
2023/10/01 10:32:30;;;;;;;14.23;6.55;;;;;;;16.62;75.19;100900.94;6207538;23;20342;-93
2023/10/01 10:35:04;;;;;;;10.27;5.35;;;;;;;16.65;75.18;100905.16;6134618;23;20021;-94
2023/10/01 10:37:36;;;;;;;11.52;5.50;;;;;;;16.69;75.48;100895.84;6183921;23;20032;-96
2023/10/01 10:40:13;;;;;;;13.80;5.60;;;;;;;16.76;75.27;100904.09;6183375;23;20021;-95
2023/10/01 10:43:04;;;;;;;13.15;5.72;;;;;;;16.74;76.41;100890.00;6159137;23;20043;-95
2023/10/01 10:45:54;;;;;;;11.25;5.95;;;;;;;16.82;75.03;100890.97;6158350;23;20020;-95
2023/10/01 10:48:21;;;;;;;11.85;6.20;;;;;;;16.82;75.52;100887.47;6161728;23;20046;-93
2023/10/01 10:50:58;;;;;;;12.77;5.45;;;;;;;16.87;75.42;100893.22;6183171;23;20095;-93
2023/10/01 10:53:29;;;;;;;12.32;5.75;;;;;;;16.88;75.39;100890.38;6159786;23;20025;-95
2023/10/01 10:56:10;;;;;;;14.75;5.45;;;;;;;16.93;75.63;100893.44;6159419;23;20400;-93
2023/10/01 10:58:44;;;;;;;12.25;5.47;;;;;;;16.97;75.46;100890.44;6134480;23;20021;-95
2023/10/01 11:01:15;;;;;;;17.95;6.03;;;;;;;16.99;75.36;100891.97;6158144;23;20060;-93
2023/10/01 11:03:50;;;;;;;12.45;5.35;;;;;;;17.01;75.18;100887.31;6184109;23;20095;-94
2023/10/01 11:06:29;;;;;;;16.25;6.32;;;;;;;17.05;75.55;100880.66;6208530;23;20028;-95
2023/10/01 11:09:03;;;;;;;13.63;5.93;;;;;;;17.08;75.29;100877.66;6159496;23;20036;-94
2023/10/01 11:11:39;;;;;;;12.20;5.43;;;;;;;17.12;75.88;100876.38;6159306;23;20066;-95
2023/10/01 11:14:17;;;;;;;11.73;5.13;;;;;;;17.16;75.41;100870.69;6161499;23;20026;-95
2023/10/01 11:16:49;;;;;;;10.25;5.15;;;;;;;17.22;75.62;100870.91;6159310;23;20020;-95
2023/10/01 11:19:27;;;;;;;14.45;5.90;;;;;;;17.20;75.51;100861.31;6158021;23;20117;-93
2023/10/01 11:21:58;;;;;;;12.43;5.90;;;;;;;17.28;75.59;100856.88;6157465;23;20032;-95
2023/10/01 11:24:29;;;;;;;12.15;5.57;;;;;;;17.32;75.35;100850.19;6158561;23;20075;-93
2023/10/01 11:27:24;;;;;;;9.60;4.72;;;;;;;17.34;75.29;100850.06;6157782;23;20021;-95
2023/10/01 11:30:12;;;;;;;11.32;5.20;;;;;;;17.39;74.62;100853.13;6135597;23;20020;-93
2023/10/01 11:32:59;;;;;;;11.15;5.32;;;;;;;17.45;74.74;100855.16;6159934;23;20096;-95
2023/10/01 11:35:33;;;;;;;10.20;5.47;;;;;;;17.47;74.71;100850.50;6159271;23;20016;-95
2023/10/01 11:38:19;;;;;;;11.57;5.75;;;;;;;17.49;74.93;100844.97;6134205;23;20253;-94
2023/10/01 11:43:58;;;;;;;10.60;5.25;;;;;;;17.56;74.72;100841.50;6162019;23;20036;-93
2023/10/01 11:46:34;;;;;;;10.45;5.63;;;;;;;17.65;74.57;100845.09;6160777;23;20021;-92
2023/10/01 11:49:09;;;;;;;11.02;5.57;;;;;;;17.64;74.33;100839.88;6157711;23;20012;-95
2023/10/01 11:52:01;;;;;;;13.43;5.53;;;;;;;17.69;73.97;100835.72;6181856;23;20452;-93
2023/10/01 11:54:45;;;;;;;12.52;5.30;;;;;;;17.74;73.86;100835.25;6161404;23;20353;-95
2023/10/01 11:57:25;;;;;;;11.85;5.70;;;;;;;17.77;73.59;100832.25;6160276;23;20040;-93
2023/10/01 11:59:55;;;;;;;11.73;5.50;;;;;;;17.82;73.27;100819.22;6178833;23;20425;-94
2023/10/01 12:02:29;;;;;;;14.13;6.35;;;;;;;17.86;72.27;100820.59;6026547;23;20028;-90
2023/10/01 12:05:09;;;;;;;12.98;5.70;;;;;;;17.90;72.27;100818.41;6109893;23;20024;-90
2023/10/01 12:07:43;;;;;;;12.32;5.20;;;;;;;17.93;72.38;100815.41;6144366;23;20338;-90
2023/10/01 12:12:59;;;;;;;14.60;5.43;;;;;;;18.00;72.59;100797.66;6174132;23;20074;-89
2023/10/01 12:15:35;;;;;;;12.02;5.45;;;;;;;18.03;72.30;100799.16;6156806;23;20023;-90
2023/10/01 12:18:17;;;;;;;10.30;5.22;;;;;;;18.06;71.95;100799.69;6184046;23;20023;-94
2023/10/01 12:20:47;;;;;;;11.63;6.18;;;;;;;18.10;72.25;100789.47;6120426;23;20020;-95
2023/10/01 12:23:26;;;;;;;13.27;5.50;;;;;;;18.11;71.71;100781.22;6111315;23;20530;-85
2023/10/01 12:26:31;;;;;;;12.15;5.85;;;;;;;18.12;71.24;100777.53;6152868;23;20392;-85
2023/10/01 12:29:11;;;;;;;11.27;5.30;;;;;;;18.14;70.89;100780.06;6202073;23;20025;-84
2023/10/01 12:31:28;;;;;;;14.32;5.40;;;;;;;18.19;71.15;100781.28;6154826;23;20036;-84
2023/10/01 12:33:58;;;;;;;14.27;6.43;;;;;;;18.20;71.21;100771.38;6201476;23;20029;-84
2023/10/01 12:39:27;;;;;;;12.00;5.43;;;;;;;18.25;70.39;100782.47;6160700;23;20025;-84
2023/10/01 12:44:32;;;;;;;12.52;5.55;;;;;;;18.28;69.50;100775.94;6160209;23;20111;-83